Time;durP1;ratioP1;P1;durP2;ratioP2;P2;SDS_P1;SDS_P2;PMS_P1;PMS_P2;Temp;Humidity;BMP_temperature;BMP_pressure;BME280_temperature;BME280_humidity;BME280_pressure;Samples;Min_cycle;Max_cycle;Signal;HPM_P1;HPM_P2
2023/06/27 00:02:28;;;;;;;18.70;8.60;;;;;;;20.89;62.08;98463.82;223395;184;143754;-68
2023/06/27 00:07:31;;;;;;;12.90;7.30;;;;;;;20.93;61.51;98538.02;223412;183;138461;-66
2023/06/27 00:12:35;;;;;;;11.00;6.40;;;;;;;21.06;57.87;98549.69;223544;213;136743;-64
2023/06/27 00:17:40;;;;;;;13.60;6.30;;;;;;;21.22;56.39;98555.77;223539;182;143855;-63
2023/06/27 00:22:49;;;;;;;9.80;5.10;;;;;;;21.36;56.80;98568.60;223515;216;138102;-66
2023/06/27 00:27:57;;;;;;;9.70;5.80;;;;;;;21.45;58.63;98568.21;223526;182;136747;-66
2023/06/27 00:33:01;;;;;;;11.40;5.70;;;;;;;21.45;60.42;98567.60;223890;181;145384;-66
2023/06/27 00:38:06;;;;;;;8.00;5.30;;;;;;;21.39;61.65;98578.25;223749;181;138522;-67
2023/06/27 00:43:10;;;;;;;13.20;5.40;;;;;;;21.32;62.71;98581.36;223769;180;136433;-68
2023/06/27 00:53:51;;;;;;;9.80;5.60;;;;;;;21.18;64.81;98596.38;222286;222;667467;-69
2023/06/27 00:58:57;;;;;;;8.30;4.60;;;;;;;21.08;66.10;98581.17;223567;186;136678;-69
2023/06/27 01:04:00;;;;;;;11.80;4.90;;;;;;;21.05;66.45;98590.96;223524;182;143480;-68
2023/06/27 01:09:16;;;;;;;7.50;4.90;;;;;;;21.01;67.20;98595.91;223416;183;141243;-68
2023/06/27 01:14:23;;;;;;;6.00;4.40;;;;;;;20.97;67.95;98600.68;223376;183;136715;-67
2023/06/27 01:19:29;;;;;;;9.40;4.90;;;;;;;20.96;69.00;98609.81;223510;182;143293;-67
2023/06/27 01:24:36;;;;;;;6.30;4.50;;;;;;;20.84;69.63;98600.83;223590;215;138158;-67
2023/06/27 01:29:41;;;;;;;7.20;4.40;;;;;;;20.79;70.16;98602.00;223546;182;136415;-67
2023/06/27 01:34:59;;;;;;;6.90;4.40;;;;;;;20.73;70.71;98597.57;223551;182;143471;-67
2023/06/27 01:40:08;;;;;;;8.10;5.00;;;;;;;20.77;71.35;98597.66;223515;182;139517;-68
2023/06/27 01:45:14;;;;;;;10.60;5.70;;;;;;;20.74;71.51;98608.66;223461;182;136487;-67
2023/06/27 01:50:17;;;;;;;7.70;5.50;;;;;;;20.66;71.95;98611.34;223505;216;145440;-68
2023/06/27 01:55:21;;;;;;;9.70;6.00;;;;;;;20.53;72.12;98625.36;223405;183;139764;-67
2023/06/27 02:00:25;;;;;;;7.40;5.50;;;;;;;20.43;72.55;98641.17;223595;205;137104;-69
2023/06/27 02:05:28;;;;;;;12.90;6.10;;;;;;;20.32;73.16;98671.27;223399;184;145389;-70
2023/06/27 02:10:32;;;;;;;8.80;5.10;;;;;;;20.24;73.59;98657.70;223577;204;138823;-69
2023/06/27 02:15:35;;;;;;;6.40;5.50;;;;;;;20.14;73.90;98645.11;223506;182;136627;-66
2023/06/27 02:20:39;;;;;;;9.30;6.30;;;;;;;20.01;74.19;98607.45;223544;181;147172;-68
2023/06/27 02:25:43;;;;;;;9.20;5.40;;;;;;;19.93;74.49;98608.73;223564;181;138252;-67
2023/06/27 02:30:50;;;;;;;7.20;4.80;;;;;;;19.81;74.58;98602.54;223511;214;136537;-69
2023/06/27 02:35:53;;;;;;;8.30;4.80;;;;;;;19.73;75.01;98596.02;223728;182;145761;-67
2023/06/27 02:40:56;;;;;;;8.50;5.20;;;;;;;19.71;75.13;98596.88;223620;181;140086;-69
2023/06/27 02:46:00;;;;;;;9.80;5.90;;;;;;;19.71;75.20;98582.02;223629;182;137026;-69
2023/06/27 02:51:04;;;;;;;8.00;5.60;;;;;;;19.68;75.48;98570.16;223476;181;146625;-68
2023/06/27 02:56:08;;;;;;;7.40;5.60;;;;;;;19.61;75.65;98555.73;223620;181;138220;-67
2023/06/27 03:01:13;;;;;;;8.70;5.90;;;;;;;19.51;75.95;98553.17;223500;192;136547;-72
2023/06/27 03:06:19;;;;;;;10.20;5.90;;;;;;;19.47;76.32;98559.44;223699;192;145474;-70
2023/06/27 03:11:23;;;;;;;8.00;6.10;;;;;;;19.43;76.35;98563.09;223563;181;138630;-69
2023/06/27 03:16:27;;;;;;;8.70;6.20;;;;;;;19.44;76.51;98579.36;223614;182;136462;-67
2023/06/27 03:21:30;;;;;;;7.90;6.20;;;;;;;19.49;76.34;98579.48;223515;181;145627;-69
2023/06/27 03:26:34;;;;;;;8.00;5.80;;;;;;;19.50;76.38;98585.67;223614;182;138380;-69
2023/06/27 03:31:38;;;;;;;8.70;5.80;;;;;;;19.52;76.27;98587.48;223572;182;136998;-67
2023/06/27 03:36:41;;;;;;;9.70;6.50;;;;;;;19.56;76.19;98593.11;223546;214;146360;-69
2023/06/27 03:41:45;;;;;;;8.90;6.70;;;;;;;19.59;75.96;98603.79;223553;181;138535;-67
2023/06/27 03:46:48;;;;;;;8.50;6.80;;;;;;;19.58;76.11;98612.52;223517;181;136255;-70
2023/06/27 03:51:51;;;;;;;8.60;5.60;;;;;;;19.57;76.29;98609.98;223475;215;145314;-70
2023/06/27 03:56:55;;;;;;;10.30;5.60;;;;;;;19.55;76.50;98606.70;223504;181;138295;-66
2023/06/27 04:01:59;;;;;;;6.50;5.10;;;;;;;19.62;76.62;98594.89;223615;182;138023;-71
2023/06/27 04:07:02;;;;;;;7.80;5.20;;;;;;;19.66;76.40;98588.39;223690;214;145215;-68
2023/06/27 04:12:06;;;;;;;11.40;5.50;;;;;;;19.71;76.25;98593.63;223719;191;138735;-71
2023/06/27 04:17:09;;;;;;;5.70;4.60;;;;;;;19.70;76.26;98585.05;223514;181;139662;-68
2023/06/27 04:22:12;;;;;;;8.60;5.90;;;;;;;19.66;76.34;98579.20;223268;184;146827;-68
2023/06/27 04:27:25;;;;;;;6.70;4.80;;;;;;;19.69;76.42;98576.14;223521;203;138278;-67
2023/06/27 04:32:28;;;;;;;9.20;5.60;;;;;;;19.77;76.33;98574.34;223521;182;137766;-67
2023/06/27 04:37:32;;;;;;;8.80;5.40;;;;;;;19.81;76.17;98578.66;223512;208;145630;-68
2023/06/27 04:42:35;;;;;;;51.50;41.90;;;;;;;19.81;76.30;98572.11;223566;204;138096;-66
2023/06/27 04:47:40;;;;;;;6.70;5.30;;;;;;;19.80;76.56;98558.23;223477;182;137699;-68
2023/06/27 04:52:43;;;;;;;7.40;5.50;;;;;;;19.82;76.76;98560.67;223544;182;145892;-69
2023/06/27 04:57:46;;;;;;;8.50;7.10;;;;;;;19.78;77.16;98573.83;223514;182;138623;-70
2023/06/27 05:02:50;;;;;;;5.60;4.80;;;;;;;19.71;77.45;98576.52;223423;181;136530;-70
2023/06/27 05:07:54;;;;;;;7.50;5.60;;;;;;;19.71;77.97;98564.60;223426;181;145132;-68
2023/06/27 05:12:57;;;;;;;13.10;10.90;;;;;;;19.89;77.99;98570.58;223441;181;138730;-69
2023/06/27 05:18:07;;;;;;;8.00;5.40;;;;;;;19.97;77.77;98565.58;223597;182;139160;-70
2023/06/27 05:23:11;;;;;;;11.00;8.90;;;;;;;19.93;77.92;98560.59;223521;181;145157;-70
2023/06/27 05:28:14;;;;;;;25.60;18.40;;;;;;;19.91;77.98;98568.70;223459;181;138545;-69
2023/06/27 05:33:17;;;;;;;8.30;6.10;;;;;;;19.92;78.26;98574.94;223565;182;137156;-71
2023/06/27 05:38:20;;;;;;;17.60;13.60;;;;;;;20.06;78.01;98570.67;223522;185;145605;-69
2023/06/27 05:43:24;;;;;;;9.70;7.40;;;;;;;20.20;77.81;98571.91;223616;182;138368;-64
2023/06/27 05:48:27;;;;;;;11.60;8.00;;;;;;;20.36;77.74;98586.38;223750;215;137652;-68
2023/06/27 05:53:30;;;;;;;9.00;6.30;;;;;;;20.49;77.49;98582.60;223571;182;145273;-67
2023/06/27 05:58:36;;;;;;;7.90;5.30;;;;;;;20.47;77.34;98581.70;223620;181;138380;-65
2023/06/27 06:03:40;;;;;;;6.20;4.30;;;;;;;20.53;77.15;98584.87;223623;182;139824;-64
2023/06/27 06:08:44;;;;;;;6.40;4.50;;;;;;;20.64;76.70;98590.66;223713;182;145144;-67
2023/06/27 06:13:47;;;;;;;6.30;4.10;;;;;;;20.66;76.42;98598.20;223624;181;138361;-68
2023/06/27 06:18:50;;;;;;;4.50;3.90;;;;;;;20.57;75.90;98609.61;223578;183;136827;-70
2023/06/27 06:23:54;;;;;;;5.70;4.20;;;;;;;20.53;75.61;98610.46;223626;182;281835;-68
2023/06/27 06:28:57;;;;;;;6.30;4.60;;;;;;;20.59;75.36;98610.40;223732;181;138130;-68
2023/06/27 06:34:00;;;;;;;7.10;4.20;;;;;;;20.61;74.58;98615.69;223607;182;137346;-67
2023/06/27 06:39:04;;;;;;;6.80;4.40;;;;;;;20.59;73.03;98626.42;223395;181;145210;-67
2023/06/27 06:44:08;;;;;;;8.00;3.50;;;;;;;20.55;71.85;98634.73;223533;182;140009;-66
2023/06/27 06:49:11;;;;;;;5.40;3.70;;;;;;;20.48;70.67;98646.30;223671;181;137304;-66
2023/06/27 06:54:26;;;;;;;5.30;3.20;;;;;;;20.43;70.09;98656.80;223650;204;145609;-67
2023/06/27 06:59:31;;;;;;;7.60;3.10;;;;;;;20.38;69.54;98657.80;223527;181;139800;-67
2023/06/27 07:04:34;;;;;;;5.90;3.50;;;;;;;20.36;69.02;98662.56;223589;214;137296;-65
2023/06/27 07:09:38;;;;;;;5.30;3.50;;;;;;;20.27;68.86;98669.50;223594;182;145249;-65
2023/06/27 07:14:41;;;;;;;7.50;3.40;;;;;;;20.31;69.03;98684.88;223565;182;139008;-68
2023/06/27 07:19:44;;;;;;;5.70;2.80;;;;;;;20.33;67.85;98693.88;223586;181;138733;-69
2023/06/27 07:24:47;;;;;;;14.90;8.90;;;;;;;20.27;66.85;98698.82;223752;181;146460;-67
2023/06/27 07:29:51;;;;;;;8.80;3.00;;;;;;;20.08;67.23;98703.77;223558;181;138404;-68
2023/06/27 07:34:54;;;;;;;5.00;2.70;;;;;;;19.97;67.20;98703.50;223686;181;136696;-67
2023/06/27 07:40:00;;;;;;;5.70;2.60;;;;;;;19.81;66.93;98708.45;223543;181;145272;-67
2023/06/27 07:45:05;;;;;;;4.40;2.60;;;;;;;19.69;67.63;98707.35;223585;182;138444;-68
2023/06/27 07:50:08;;;;;;;3.50;2.70;;;;;;;19.70;67.74;98711.07;223521;182;136925;-68
2023/06/27 07:55:12;;;;;;;6.20;2.80;;;;;;;19.70;67.69;98711.07;223751;181;145486;-67
2023/06/27 08:00:15;;;;;;;11.00;7.90;;;;;;;19.81;67.57;98712.05;223709;214;141177;-68
2023/06/27 08:05:19;;;;;;;6.30;2.70;;;;;;;19.87;67.04;98707.27;223551;182;136965;-68
2023/06/27 08:10:24;;;;;;;6.90;2.50;;;;;;;20.00;66.52;98706.18;223527;181;144907;-66
2023/06/27 08:15:27;;;;;;;7.70;3.30;;;;;;;20.12;65.69;98705.91;223532;181;138118;-68
2023/06/27 08:20:31;;;;;;;5.30;2.70;;;;;;;20.27;66.34;98704.77;223599;181;137380;-66
2023/06/27 08:25:35;;;;;;;6.40;3.00;;;;;;;20.44;65.81;98693.79;223508;182;145585;-66
2023/06/27 08:30:38;;;;;;;8.80;3.30;;;;;;;20.52;65.21;98700.42;223686;192;138459;-66
2023/06/27 08:35:43;;;;;;;7.50;2.90;;;;;;;20.45;63.99;98712.03;223515;215;136608;-67
2023/06/27 08:40:53;;;;;;;10.10;3.30;;;;;;;20.36;64.21;98717.55;223549;181;145776;-65
2023/06/27 08:45:59;;;;;;;8.20;3.20;;;;;;;20.31;64.50;98715.33;223467;181;138798;-65
2023/06/27 08:51:04;;;;;;;204.60;158.10;;;;;;;20.37;64.49;98713.84;223448;181;136552;-69
2023/06/27 08:56:14;;;;;;;8.80;4.90;;;;;;;20.45;63.98;98723.05;223530;181;145880;-65
2023/06/27 09:01:18;;;;;;;9.30;3.90;;;;;;;20.48;63.75;98720.46;223582;181;138875;-67
2023/06/27 09:06:22;;;;;;;17.60;9.60;;;;;;;20.50;63.78;98721.55;223685;181;136544;-68
2023/06/27 09:11:26;;;;;;;14.40;4.90;;;;;;;20.51;63.87;98718.73;223508;207;146702;-66
2023/06/27 09:16:30;;;;;;;10.40;4.10;;;;;;;20.55;63.82;98721.94;223567;181;138898;-67
2023/06/27 09:21:34;;;;;;;43.60;35.80;;;;;;;20.53;63.97;98730.94;223649;182;138367;-65
2023/06/27 09:26:37;;;;;;;7.60;4.10;;;;;;;20.48;64.83;98746.87;223487;181;147647;-67
2023/06/27 09:31:41;;;;;;;10.30;3.30;;;;;;;20.38;65.09;98750.84;223629;214;138620;-65
2023/06/27 09:36:46;;;;;;;;;;;;;;;20.27;65.14;98762.98;223685;215;139557;-66
2023/06/27 09:41:51;;;;;;;;;;;;;;;20.17;65.31;98754.66;223577;182;147239;-66
2023/06/27 09:50:57;;;;;;;6.50;3.50;;;;;;;19.97;65.65;98758.59;221579;193;666207;-67
2023/06/27 09:56:01;;;;;;;6.10;3.60;;;;;;;20.08;66.18;98753.95;223211;185;136800;-69
2023/06/27 10:01:06;;;;;;;29.10;24.20;;;;;;;20.22;66.33;98755.92;223388;185;144434;-72
2023/06/27 10:06:10;;;;;;;7.80;3.50;;;;;;;20.33;65.06;98754.72;223080;186;138145;-70
2023/06/27 10:11:15;;;;;;;7.80;3.70;;;;;;;20.42;63.04;98752.41;223564;182;137847;-65
2023/06/27 10:16:19;;;;;;;7.20;4.00;;;;;;;20.60;62.90;98753.89;223633;183;143521;-66
2023/06/27 10:21:26;;;;;;;10.60;4.50;;;;;;;20.77;61.69;98760.83;223530;183;138346;-65
2023/06/27 10:26:30;;;;;;;10.40;3.90;;;;;;;20.90;61.42;98758.85;223583;183;136960;-68
2023/06/27 10:31:45;;;;;;;9.60;3.80;;;;;;;20.96;60.87;98763.83;223689;182;143720;-69
2023/06/27 10:36:57;;;;;;;5.30;3.70;;;;;;;21.00;60.68;98757.84;223669;182;138534;-66
2023/06/27 10:42:05;;;;;;;10.10;6.20;;;;;;;20.96;60.26;98760.96;223686;182;136494;-66
2023/06/27 10:51:05;;;;;;;12.20;4.30;;;;;;;20.84;56.86;98758.23;221495;226;665769;-65
2023/06/27 10:56:14;;;;;;;6.60;3.80;;;;;;;20.71;57.25;98756.96;223755;182;137264;-67
2023/06/27 11:01:20;;;;;;;7.90;3.10;;;;;;;20.57;57.63;98761.73;223549;182;143483;-72
2023/06/27 11:06:40;;;;;;;6.50;3.20;;;;;;;20.47;58.00;98756.66;223719;182;138569;-66
2023/06/27 11:12:11;;;;;;;7.20;3.20;;;;;;;20.59;58.15;98755.04;223768;182;136764;-68
2023/06/27 11:17:17;;;;;;;6.50;2.70;;;;;;;20.75;57.58;98745.74;223604;182;145532;-69
2023/06/27 11:22:21;;;;;;;8.70;2.90;;;;;;;20.91;56.73;98739.16;223656;182;138971;-68
2023/06/27 11:27:30;;;;;;;9.50;4.40;;;;;;;21.06;56.61;98730.45;223716;182;136344;-68
2023/06/27 11:32:33;;;;;;;9.60;3.30;;;;;;;21.20;56.37;98724.61;223758;182;143357;-66
2023/06/27 11:37:40;;;;;;;9.80;3.10;;;;;;;21.32;55.74;98727.78;223685;181;138092;-65
2023/06/27 11:42:43;;;;;;;5.80;3.00;;;;;;;21.42;56.11;98716.48;223674;182;139596;-70
2023/06/27 11:47:47;;;;;;;7.50;3.50;;;;;;;21.51;55.86;98709.77;223658;182;145925;-68
2023/06/27 11:52:52;;;;;;;4.20;2.60;;;;;;;21.69;55.84;98706.84;223684;182;139106;-70
2023/06/27 11:57:58;;;;;;;4.80;2.90;;;;;;;21.98;55.41;98700.56;223582;182;136799;-67
2023/06/27 12:03:06;;;;;;;6.10;3.00;;;;;;;22.10;54.85;98696.11;223519;182;146002;-71
2023/06/27 12:08:10;;;;;;;8.00;2.50;;;;;;;22.03;53.48;98690.45;223674;181;139847;-70
2023/06/27 12:13:14;;;;;;;5.30;2.50;;;;;;;21.91;51.90;98682.38;223632;181;136436;-66
2023/06/27 12:18:27;;;;;;;16.00;11.10;;;;;;;21.91;51.27;98679.84;223797;181;146149;-69
2023/06/27 12:23:30;;;;;;;5.00;2.40;;;;;;;21.93;49.66;98674.62;223531;181;138459;-67
2023/06/27 12:28:33;;;;;;;5.70;1.90;;;;;;;22.11;47.70;98666.95;223617;181;136541;-65
2023/06/27 12:33:37;;;;;;;4.80;1.80;;;;;;;22.50;47.17;98657.29;223640;181;145418;-68
2023/06/27 12:38:40;;;;;;;4.40;1.80;;;;;;;22.85;44.69;98645.73;223639;181;138556;-67
2023/06/27 12:43:45;;;;;;;5.20;2.20;;;;;;;22.82;43.56;98647.73;223588;181;136443;-68
2023/06/27 12:48:48;;;;;;;49.80;42.30;;;;;;;23.03;43.87;98653.91;223667;181;145580;-67
2023/06/27 12:53:51;;;;;;;5.80;3.80;;;;;;;23.23;44.19;98649.02;223658;181;139276;-67
2023/06/27 12:58:55;;;;;;;4.50;2.10;;;;;;;23.32;43.18;98644.16;223645;181;139688;-68
2023/06/27 13:03:58;;;;;;;6.00;2.30;;;;;;;23.16;42.49;98649.29;223632;181;145169;-67
2023/06/27 13:09:03;;;;;;;6.50;2.70;;;;;;;22.86;42.93;98643.64;223610;181;138207;-67
2023/06/27 13:14:06;;;;;;;40.70;30.90;;;;;;;22.71;43.59;98643.80;223594;181;137699;-68
2023/06/27 13:19:10;;;;;;;7.70;3.00;;;;;;;22.71;43.27;98639.65;223676;181;146206;-69
2023/06/27 13:24:14;;;;;;;2.60;1.90;;;;;;;22.88;43.47;98637.90;223716;180;138416;-69
2023/06/27 13:29:21;;;;;;;4.80;2.20;;;;;;;23.21;42.75;98636.91;223623;181;136525;-68
2023/06/27 13:34:24;;;;;;;2.40;1.50;;;;;;;23.19;41.69;98634.12;223564;181;145242;-67
2023/06/27 13:39:27;;;;;;;3.90;1.70;;;;;;;22.99;41.32;98637.04;223649;181;138697;-66
2023/06/27 13:44:31;;;;;;;6.40;1.80;;;;;;;22.83;41.35;98631.48;223471;182;139914;-66
2023/06/27 13:49:34;;;;;;;3.30;1.70;;;;;;;22.68;41.89;98628.46;223533;181;145376;-67
2023/06/27 13:54:38;;;;;;;7.10;2.10;;;;;;;22.63;42.94;98626.71;223627;181;139553;-67
2023/06/27 13:59:41;;;;;;;5.60;2.20;;;;;;;22.77;43.58;98627.50;223619;181;137673;-69
2023/06/27 14:04:44;;;;;;;5.20;3.00;;;;;;;22.94;41.65;98621.57;223591;181;146029;-67
2023/06/27 14:09:48;;;;;;;36.10;23.50;;;;;;;22.84;40.44;98618.96;223694;181;139644;-69
2023/06/27 14:14:51;;;;;;;4.60;1.90;;;;;;;22.75;40.18;98618.56;223582;181;137814;-70
2023/06/27 14:19:54;;;;;;;3.40;1.60;;;;;;;22.88;39.92;98615.73;223644;181;145690;-69
2023/06/27 14:24:58;;;;;;;7.80;1.80;;;;;;;23.34;39.67;98605.81;223746;181;139584;-67
2023/06/27 14:30:03;;;;;;;38.00;28.40;;;;;;;23.52;39.41;98594.61;223624;181;137963;-67
2023/06/27 14:35:08;;;;;;;6.00;2.20;;;;;;;23.33;37.90;98593.36;223682;181;145350;-67
2023/06/27 14:40:12;;;;;;;4.80;1.70;;;;;;;23.12;38.14;98595.88;223684;181;138535;-70
2023/06/27 14:50:53;;;;;;;7.10;2.50;;;;;;;22.73;39.30;98619.56;221518;192;676107;-67
2023/06/27 14:55:59;;;;;;;5.00;1.50;;;;;;;22.41;40.75;98644.09;223156;185;136046;-64
2023/06/27 15:01:02;;;;;;;3.50;1.50;;;;;;;22.24;41.57;98645.03;223641;184;144407;-71
2023/06/27 15:06:06;;;;;;;4.40;1.50;;;;;;;22.28;41.76;98631.17;223568;183;138406;-67
2023/06/27 15:11:11;;;;;;;5.90;1.60;;;;;;;22.26;41.05;98628.08;223594;183;136227;-67
2023/06/27 15:16:15;;;;;;;4.30;1.40;;;;;;;22.26;40.59;98629.05;223738;183;143775;-69
2023/06/27 15:21:19;;;;;;;3.30;1.50;;;;;;;22.23;41.05;98632.88;223683;183;138587;-68
2023/06/27 15:26:22;;;;;;;4.00;3.10;;;;;;;22.23;40.14;98632.30;223697;182;136479;-66
2023/06/27 15:31:28;;;;;;;3.80;1.90;;;;;;;22.19;40.80;98630.77;223706;182;143353;-67
2023/06/27 15:36:36;;;;;;;3.70;2.00;;;;;;;22.24;41.12;98629.00;223753;182;139210;-69
2023/06/27 15:42:32;;;;;;;5.40;3.00;;;;;;;22.33;41.16;98627.02;221609;194;665633;-69
2023/06/27 15:47:35;;;;;;;61.70;50.20;;;;;;;22.31;38.88;98622.38;223663;183;135863;-68
2023/06/27 15:52:39;;;;;;;7.20;3.20;;;;;;;22.29;39.65;98620.97;223739;181;143686;-69
2023/06/27 15:57:43;;;;;;;6.90;2.10;;;;;;;22.32;39.41;98624.40;223745;181;138405;-67
2023/06/27 16:02:46;;;;;;;6.90;2.00;;;;;;;22.37;38.97;98626.51;223620;181;136159;-68
2023/06/27 16:07:50;;;;;;;2.60;1.30;;;;;;;22.29;38.50;98626.73;223629;181;143420;-67
2023/06/27 16:12:54;;;;;;;7.30;1.40;;;;;;;22.25;38.60;98623.10;223695;181;139158;-67
2023/06/27 16:17:57;;;;;;;2.70;1.60;;;;;;;22.25;37.83;98621.27;223426;181;138968;-68
2023/06/27 16:27:26;;;;;;;4.40;1.50;;;;;;;22.17;37.55;98621.27;221745;189;676504;-68
2023/06/27 16:32:29;;;;;;;4.30;1.80;;;;;;;22.05;39.83;98623.04;223357;185;136907;-67
2023/06/27 16:37:33;;;;;;;54.60;41.80;;;;;;;22.06;42.34;98620.91;223590;184;144064;-67
2023/06/27 16:54:40;;;;;;;4.50;1.90;;;;;;;21.98;41.96;98632.66;221463;192;666668;-68
2023/06/27 16:59:43;;;;;;;5.20;1.60;;;;;;;21.92;41.71;98635.90;223624;183;135901;-68
2023/06/27 17:04:46;;;;;;;4.10;1.70;;;;;;;21.89;41.72;98638.39;223491;182;143807;-69
2023/06/27 17:09:50;;;;;;;5.40;1.60;;;;;;;21.86;42.09;98638.73;223582;182;138636;-69
2023/06/27 17:14:53;;;;;;;3.50;1.50;;;;;;;21.85;40.89;98639.09;223641;183;136376;-67
2023/06/27 17:19:56;;;;;;;5.10;1.40;;;;;;;21.80;41.14;98642.31;223624;182;144355;-69
2023/06/27 17:25:00;;;;;;;4.80;1.10;;;;;;;21.76;40.63;98640.62;223633;183;139113;-72
2023/06/27 17:30:04;;;;;;;4.90;1.50;;;;;;;21.75;40.58;98640.22;223568;182;136300;-67
2023/06/27 17:35:08;;;;;;;8.40;5.90;;;;;;;21.67;40.24;98644.77;223755;182;144644;-68
2023/06/27 17:40:12;;;;;;;3.70;1.70;;;;;;;21.59;40.38;98651.21;223717;182;139029;-69
2023/06/27 17:45:16;;;;;;;5.20;1.60;;;;;;;21.55;40.88;98653.90;223694;183;137012;-69
2023/06/27 17:50:19;;;;;;;11.10;1.50;;;;;;;21.46;40.99;98661.73;223617;183;145003;-69
2023/06/27 17:55:22;;;;;;;4.60;1.50;;;;;;;21.36;41.23;98665.43;223649;182;138351;-68
2023/06/27 18:00:26;;;;;;;5.90;1.40;;;;;;;21.24;41.14;98669.59;223733;178;137531;-69
2023/06/27 18:05:30;;;;;;;3.60;1.60;;;;;;;21.13;41.15;98674.24;223624;183;145511;-69
2023/06/27 18:10:33;;;;;;;7.50;2.60;;;;;;;21.03;41.17;98672.14;223625;182;138382;-69
2023/06/27 18:15:37;;;;;;;3.40;1.60;;;;;;;20.91;41.28;98674.16;223658;182;137129;-69
2023/06/27 18:20:41;;;;;;;6.70;1.70;;;;;;;20.80;41.35;98680.42;223573;182;146606;-69
2023/06/27 18:25:46;;;;;;;5.10;2.00;;;;;;;20.71;41.74;98683.47;223570;183;138872;-68
2023/06/27 18:30:50;;;;;;;10.40;6.10;;;;;;;20.60;42.13;98686.43;223644;183;136614;-68
2023/06/27 18:35:54;;;;;;;17.20;15.40;;;;;;;20.51;42.12;98692.59;223638;182;145705;-64
2023/06/27 18:40:58;;;;;;;4.30;2.10;;;;;;;20.48;41.81;98698.02;223576;182;138896;-68
2023/06/27 18:50:51;;;;;;;5.30;2.10;;;;;;;20.48;41.62;98703.02;222022;192;665538;-68
2023/06/27 18:55:57;;;;;;;3.40;1.60;;;;;;;20.45;42.21;98707.71;223429;186;136851;-70
2023/06/27 19:01:01;;;;;;;5.00;1.70;;;;;;;20.42;42.19;98718.08;223469;185;145309;-69
2023/06/27 19:06:05;;;;;;;5.10;1.80;;;;;;;20.47;43.14;98725.73;223435;183;139345;-70
2023/06/27 19:11:08;;;;;;;6.60;2.00;;;;;;;20.57;43.06;98726.65;223560;185;140321;-69
2023/06/27 19:16:11;;;;;;;3.20;1.80;;;;;;;20.54;42.92;98726.95;223349;185;143383;-68
2023/06/27 19:21:16;;;;;;;6.60;2.20;;;;;;;20.49;43.09;98729.45;223378;184;139097;-67
2023/06/27 19:26:20;;;;;;;4.00;2.00;;;;;;;20.48;43.34;98732.02;223680;184;136539;-66
2023/06/27 19:31:41;;;;;;;4.90;2.00;;;;;;;20.46;43.77;98732.98;223659;184;145827;-68
2023/06/27 19:36:46;;;;;;;3.70;2.20;;;;;;;20.42;43.81;98730.32;223573;183;138979;-69
2023/06/27 19:41:50;;;;;;;5.70;1.70;;;;;;;20.15;43.65;98739.41;223637;183;136400;-67
2023/06/27 19:46:53;;;;;;;3.40;1.70;;;;;;;19.91;44.15;98746.85;223585;183;145089;-66
2023/06/27 19:51:56;;;;;;;7.80;1.80;;;;;;;19.75;44.57;98750.28;223562;183;139058;-67
2023/06/27 19:57:05;;;;;;;6.30;1.70;;;;;;;19.59;44.97;98748.71;223579;183;138159;-67
2023/06/27 20:02:08;;;;;;;4.10;1.60;;;;;;;19.49;45.60;98754.82;223560;181;145687;-66
2023/06/27 20:07:11;;;;;;;4.20;1.70;;;;;;;19.36;45.93;98749.30;223690;182;138343;-68
2023/06/27 20:12:15;;;;;;;74.00;55.50;;;;;;;19.21;46.39;98755.90;223607;182;137342;-68
2023/06/27 20:17:18;;;;;;;17.50;13.90;;;;;;;19.17;46.70;98757.66;223682;181;145961;-67
2023/06/27 20:22:21;;;;;;;4.60;2.40;;;;;;;19.14;47.22;98761.58;223648;182;140069;-69
2023/06/27 20:27:25;;;;;;;4.60;2.20;;;;;;;19.07;47.20;98763.71;223656;182;137018;-67
2023/06/27 20:32:28;;;;;;;5.00;2.10;;;;;;;18.98;47.32;98765.91;223695;182;145385;-68
2023/06/27 20:37:33;;;;;;;9.30;2.50;;;;;;;18.88;47.72;98767.44;223672;181;138358;-68
2023/06/27 20:42:37;;;;;;;5.30;2.10;;;;;;;18.80;48.03;98764.87;223580;181;136769;-67
2023/06/27 20:47:40;;;;;;;5.50;2.40;;;;;;;18.74;48.16;98770.50;223740;181;145113;-69
2023/06/27 20:52:44;;;;;;;6.30;2.50;;;;;;;18.69;48.31;98770.05;223657;181;138550;-67
2023/06/27 20:57:47;;;;;;;7.10;2.70;;;;;;;18.64;48.42;98767.85;223746;181;136561;-69
2023/06/27 21:02:51;;;;;;;5.70;2.50;;;;;;;18.60;48.59;98768.45;223590;181;145183;-67
2023/06/27 21:07:55;;;;;;;6.00;2.50;;;;;;;18.55;48.72;98771.23;223687;181;138671;-68
2023/06/27 21:12:58;;;;;;;6.30;2.70;;;;;;;18.53;48.65;98770.97;223697;182;136841;-69
2023/06/27 21:18:02;;;;;;;4.90;2.00;;;;;;;18.45;48.97;98772.10;223618;181;145124;-69
2023/06/27 21:23:05;;;;;;;5.20;2.00;;;;;;;18.37;49.14;98773.96;223650;181;138045;-68
2023/06/27 21:28:09;;;;;;;3.70;2.00;;;;;;;18.29;49.36;98768.14;223708;181;137136;-68
2023/06/27 21:33:12;;;;;;;4.80;2.20;;;;;;;18.21;49.58;98769.22;223695;181;145195;-68
2023/06/27 21:38:15;;;;;;;5.50;2.10;;;;;;;18.16;49.56;98773.15;223645;181;138899;-68
2023/06/27 21:43:19;;;;;;;5.40;1.70;;;;;;;18.06;49.53;98770.02;223691;181;137215;-68
2023/06/27 21:48:22;;;;;;;6.30;1.80;;;;;;;17.98;49.58;98766.11;223524;181;145098;-68
2023/06/27 21:53:26;;;;;;;3.80;1.60;;;;;;;17.90;49.64;98764.02;223678;181;139543;-70
2023/06/27 21:58:29;;;;;;;3.30;1.40;;;;;;;17.83;49.76;98763.63;223644;181;136690;-69
2023/06/27 22:03:37;;;;;;;5.40;1.60;;;;;;;17.75;49.78;98761.14;223648;181;145232;-71
2023/06/27 22:08:40;;;;;;;5.00;1.50;;;;;;;17.68;49.87;98765.55;223608;182;138241;-67
2023/06/27 22:13:45;;;;;;;6.40;1.80;;;;;;;17.62;50.20;98765.39;223620;181;136725;-69
2023/06/27 22:18:49;;;;;;;5.50;1.50;;;;;;;17.52;50.47;98767.45;223725;182;145824;-69
2023/06/27 22:23:53;;;;;;;2.90;1.50;;;;;;;17.41;50.71;98764.35;223682;181;149430;-69
2023/06/27 22:28:57;;;;;;;4.60;1.40;;;;;;;17.33;51.23;98767.32;223572;181;137172;-68
2023/06/27 22:34:00;;;;;;;3.00;1.60;;;;;;;17.28;51.64;98771.16;223717;181;145468;-68
2023/06/27 22:39:04;;;;;;;5.70;1.80;;;;;;;17.19;51.97;98774.17;223625;182;138896;-70
2023/06/27 22:44:07;;;;;;;3.60;1.60;;;;;;;17.06;52.26;98771.60;223663;181;138052;-66
2023/06/27 22:49:10;;;;;;;5.50;1.50;;;;;;;16.97;52.64;98773.34;223713;181;145435;-68
2023/06/27 22:54:13;;;;;;;3.00;1.30;;;;;;;16.88;52.91;98774.76;223697;181;138373;-68
2023/06/27 22:59:17;;;;;;;3.50;1.80;;;;;;;16.80;53.19;98772.55;223720;181;137305;-70
2023/06/27 23:04:20;;;;;;;2.20;1.50;;;;;;;16.72;53.60;98774.36;223535;181;146936;-67
2023/06/27 23:09:23;;;;;;;5.80;1.70;;;;;;;16.67;53.81;98767.98;223662;181;138685;-68
2023/06/27 23:14:26;;;;;;;3.60;1.60;;;;;;;16.62;54.09;98777.63;223750;182;137626;-69
2023/06/27 23:19:30;;;;;;;5.50;1.70;;;;;;;16.59;54.41;98785.09;223677;182;145172;-66
2023/06/27 23:24:33;;;;;;;5.40;1.80;;;;;;;16.55;54.68;98784.91;223695;182;138813;-66
2023/06/27 23:29:36;;;;;;;3.40;1.20;;;;;;;16.48;54.75;98777.10;223728;182;137078;-68
2023/06/27 23:34:39;;;;;;;3.30;1.50;;;;;;;16.41;55.21;98776.45;223552;181;144958;-65
2023/06/27 23:39:43;;;;;;;4.70;1.90;;;;;;;16.33;55.52;98777.20;223695;182;138656;-67
2023/06/27 23:44:47;;;;;;;4.10;1.70;;;;;;;16.25;55.75;98773.04;223606;181;136571;-67
2023/06/27 23:49:50;;;;;;;3.90;1.80;;;;;;;16.22;55.97;98774.23;223681;181;146843;-67
2023/06/27 23:54:53;;;;;;;4.90;1.70;;;;;;;16.18;56.16;98776.38;223702;182;138796;-66
2023/06/27 23:59:57;;;;;;;4.30;1.70;;;;;;;16.09;56.46;98781.97;223754;181;136323;-64
